Bernard, IA (52032)

2:24 AM CST on February 12, 2016 (GMT -0600)
Dubuque Regional | | Change Station
CLOSE
Current Station
Airport
Location: Dubuque,
Elevation: 1079 ft
Nearby Weather Stations

Elev 1079 ft 42.40 °N, 90.70 °W | Updated 31 minutes ago

Overcast
Overcast
15 °F
Feels Like 5 °F
N
7
Wind Variable Wind from West

Today
High -- | Low -- °F
--% Chance of Precip.
Yesterday
High -- | Low -- °F
Precip. -- in
Pressure 30.24 in
Visibility 10.0 miles
Clouds Overcast 4600 ft
Windchill 5 °F
Dew Point 6 °F
Humidity 68%
Rainfall 0.00 in
Snow Depth Not available.
7:04 AM 5:31 PM
Waxing Crescent, 18% visible
METAR KDBQ 120753Z AUTO 28006KT 10SM OVC046 M09/M14 A3017 RMK AO2 SLP238 T10941144
Pressure 30.24 in
Visibility 10.0 miles
Clouds Overcast 4600 ft
Windchill 5 °F
Dew Point 6 °F
Humidity 68%
Rainfall 0.00 in
Snow Depth Not available.
7:04 AM 5:31 PM
Waxing Crescent, 18% visible
METAR KDBQ 120753Z AUTO 28006KT 10SM OVC046 M09/M14 A3017 RMK AO2 SLP238 T10941144

10-Day Weather Forecast

Almanac

Astronomy

Feb. 12, 2016 Rise Set
Actual Time
Civil Twilight
Nautical Twilight
Astronomical Twilight
Moon
Length of Visible Light
Length of Day
Tomorrow will be .
, % of the Moon is Illuminated

Today's Extremes

State Highs State Lows

Community

WunderPhotos

Upload Photos

1,892,284 photos uploaded!

WunderBlog® & News

Nearby

Air Quality

  Air Quality AQ Index Pollutant
Not available.

Snow Depth

Station Depth Elevation

Earthquake Activity

City Distance Mag. Time & Date
Minimum magnitude displayed is 2.5.

Coastal Water Temperatures

Place Temperature

Stations

Nearby Weather Stations

Station Location Temp. Windchill Dew Point Humidity Wind Precip. Elev Updated Type
                   

Watches & Warnings

There are currently no watches in effect.